createdAt,value
2019-06-10T00:00:13.567Z,8.43
2019-06-10T00:02:38.536Z,8.47
2019-06-10T00:05:07.774Z,5.30
2019-06-10T00:07:36.202Z,8.73
2019-06-10T00:10:07.429Z,5.97
2019-06-10T00:12:36.055Z,5.70
2019-06-10T00:15:07.757Z,5.70
2019-06-10T00:17:50.675Z,6.30
2019-06-10T00:20:08.298Z,6.57
2019-06-10T00:22:36.919Z,5.10
2019-06-10T00:25:08.487Z,6.87
2019-06-10T00:27:36.992Z,11.60
2019-06-10T00:30:08.156Z,6.03
2019-06-10T00:32:37.408Z,7.00
2019-06-10T00:35:10.104Z,6.03
2019-06-10T00:37:41.772Z,6.97
2019-06-10T00:40:14.116Z,7.60
2019-06-10T00:42:41.774Z,6.30
2019-06-10T00:45:17.681Z,6.50
2019-06-10T00:47:42.263Z,8.63
2019-06-10T00:50:14.553Z,7.07
2019-06-10T00:52:45.073Z,8.70
2019-06-10T00:55:13.486Z,9.83
2019-06-10T00:57:41.888Z,10.20
2019-06-10T01:00:20.853Z,8.47
2019-06-10T01:02:41.213Z,8.13
2019-06-10T01:05:12.545Z,11.03
2019-06-10T01:07:41.449Z,6.60
2019-06-10T01:10:13.442Z,7.90
2019-06-10T01:12:41.560Z,12.93
2019-06-10T01:15:12.521Z,7.83
2019-06-10T01:17:41.740Z,11.00
2019-06-10T01:20:14.420Z,9.07
2019-06-10T01:22:41.575Z,8.43
2019-06-10T01:25:12.377Z,9.20
2019-06-10T01:27:41.028Z,10.73
2019-06-10T01:30:18.678Z,11.63
2019-06-10T01:32:41.655Z,10.60
2019-06-10T01:35:11.515Z,9.80
2019-06-10T01:37:41.462Z,9.60
2019-06-10T01:40:13.112Z,8.20
2019-06-10T01:42:41.279Z,10.00
2019-06-10T01:45:12.466Z,11.53
2019-06-10T01:47:41.645Z,10.90
2019-06-10T01:50:12.477Z,13.80
2019-06-10T01:52:41.205Z,10.30
2019-06-10T01:55:12.292Z,10.70
2019-06-10T01:57:41.337Z,9.60
2019-06-10T02:00:15.553Z,10.00
2019-06-10T02:02:44.621Z,10.10
2019-06-10T02:05:14.631Z,10.20
2019-06-10T02:07:42.423Z,8.83
2019-06-10T02:10:12.429Z,10.20
2019-06-10T02:12:41.567Z,8.13
2019-06-10T02:15:13.510Z,8.87
2019-06-10T02:17:41.742Z,10.57
2019-06-10T02:20:14.830Z,8.60
2019-06-10T02:22:41.719Z,7.50
2019-06-10T02:25:11.075Z,10.30
2019-06-10T02:27:41.499Z,11.77
2019-06-10T02:30:22.226Z,11.27
2019-06-10T02:32:42.756Z,10.23
2019-06-10T02:35:23.053Z,9.50
2019-06-10T02:37:44.473Z,10.57
2019-06-10T02:40:16.632Z,10.30
2019-06-10T02:42:46.950Z,10.17
2019-06-10T02:45:19.657Z,8.13
2019-06-10T02:47:46.000Z,6.77
2019-06-10T02:50:18.835Z,10.47
2019-06-10T02:52:45.079Z,8.60
2019-06-10T02:55:15.829Z,8.60
2019-06-10T02:57:44.952Z,10.60
2019-06-10T03:00:20.621Z,10.00
2019-06-10T03:02:45.313Z,10.00
2019-06-10T03:05:15.074Z,8.97
2019-06-10T03:07:44.787Z,10.17
2019-06-10T03:10:13.899Z,10.13
2019-06-10T03:12:42.543Z,10.97
2019-06-10T03:15:12.606Z,10.20
2019-06-10T03:17:42.928Z,9.57
2019-06-10T03:20:12.305Z,9.27
2019-06-10T03:22:42.280Z,9.23
2019-06-10T03:25:13.113Z,9.73
2019-06-10T03:27:42.469Z,8.77
2019-06-10T03:30:17.035Z,8.43
2019-06-10T03:32:46.624Z,9.40
2019-06-10T03:35:13.166Z,8.50
2019-06-10T03:37:42.390Z,9.83
2019-06-10T03:40:13.031Z,9.13
2019-06-10T03:42:42.735Z,10.53
2019-06-10T03:45:12.678Z,9.40
2019-06-10T03:47:42.775Z,10.30
2019-06-10T03:50:13.211Z,10.97
2019-06-10T03:52:43.085Z,11.63
2019-06-10T03:55:12.342Z,12.87
2019-06-10T03:57:42.272Z,10.30
2019-06-10T04:00:14.041Z,10.10
2019-06-10T04:02:43.003Z,11.43
2019-06-10T04:05:13.265Z,12.87
2019-06-10T04:07:42.689Z,10.80
2019-06-10T04:10:13.138Z,10.93
2019-06-10T04:12:43.485Z,9.57
2019-06-10T04:15:12.422Z,12.00
2019-06-10T04:17:42.828Z,13.30
2019-06-10T04:20:15.279Z,12.03
2019-06-10T04:22:41.640Z,11.90
2019-06-10T04:25:12.114Z,10.83
2019-06-10T04:27:42.501Z,7.97
2019-06-10T04:30:12.788Z,9.77
2019-06-10T04:32:42.888Z,9.20
2019-06-10T04:35:12.640Z,10.07
2019-06-10T04:37:42.813Z,9.60
2019-06-10T04:40:13.358Z,9.97
2019-06-10T04:42:43.554Z,11.37
2019-06-10T04:45:32.371Z,9.30
2019-06-10T04:48:03.098Z,11.10
2019-06-10T04:50:41.957Z,9.80
2019-06-10T04:53:02.296Z,9.50
2019-06-10T04:55:32.634Z,9.57
2019-06-10T04:58:02.513Z,9.40
2019-06-10T05:00:33.094Z,9.33
2019-06-10T05:03:02.926Z,12.43
2019-06-10T05:05:32.757Z,9.60
2019-06-10T05:08:02.679Z,12.03
2019-06-10T05:10:33.184Z,9.93
2019-06-10T05:13:03.139Z,10.07
2019-06-10T05:15:34.842Z,9.50
2019-06-10T05:18:03.339Z,9.50
2019-06-10T05:20:48.566Z,11.53
2019-06-10T05:23:02.336Z,8.03
2019-06-10T05:25:32.738Z,8.80
2019-06-10T05:28:02.894Z,10.37
2019-06-10T05:30:33.893Z,9.63
2019-06-10T05:33:02.998Z,7.90
2019-06-10T05:35:33.868Z,9.50
2019-06-10T05:38:02.414Z,8.00
2019-06-10T05:40:34.042Z,7.03
2019-06-10T05:43:02.429Z,11.00
2019-06-10T05:45:34.460Z,7.70
2019-06-10T05:48:02.806Z,7.50
2019-06-10T05:50:33.580Z,8.50
2019-06-10T05:53:02.452Z,8.60
2019-06-10T05:55:33.461Z,8.83
2019-06-10T05:58:02.591Z,9.30
2019-06-10T06:00:33.766Z,10.87
2019-06-10T06:03:02.765Z,8.30
2019-06-10T06:05:33.279Z,7.13
2019-06-10T06:08:08.193Z,8.53
2019-06-10T06:10:35.471Z,8.20
2019-06-10T06:13:03.075Z,8.93
2019-06-10T06:15:34.479Z,9.83
2019-06-10T06:18:09.389Z,8.00
2019-06-10T06:20:35.775Z,9.40
2019-06-10T06:23:02.753Z,8.47
2019-06-10T06:25:37.283Z,8.40
2019-06-10T06:28:02.977Z,8.97
2019-06-10T06:30:34.581Z,7.13
2019-06-10T06:33:02.909Z,8.67
2019-06-10T06:35:35.126Z,9.97
2019-06-10T06:38:02.599Z,8.00
2019-06-10T06:40:34.290Z,8.00
2019-06-10T06:43:02.746Z,8.77
2019-06-10T06:45:34.369Z,7.20
2019-06-10T06:48:03.021Z,7.00
2019-06-10T06:50:34.320Z,7.00
2019-06-10T06:53:19.906Z,7.57
2019-06-10T06:55:33.745Z,7.57
2019-06-10T06:58:03.355Z,6.53
2019-06-10T07:00:50.658Z,9.90
2019-06-10T07:03:04.815Z,8.73
2019-06-10T07:05:35.546Z,6.83
2019-06-10T07:08:03.869Z,6.87
2019-06-10T07:10:35.758Z,7.13
2019-06-10T07:13:07.099Z,7.00
2019-06-10T07:16:02.723Z,8.00
2019-06-10T07:18:29.670Z,7.33
2019-06-10T07:20:58.076Z,6.47
2019-06-10T07:23:26.488Z,8.13
2019-06-10T07:25:54.905Z,6.97
2019-06-10T07:28:23.315Z,7.10
2019-06-10T07:30:55.134Z,6.10
2019-06-10T07:33:22.665Z,8.90
2019-06-10T07:35:52.513Z,6.70
2019-06-10T07:38:24.037Z,8.30
2019-06-10T07:40:53.013Z,8.97
2019-06-10T07:43:23.129Z,7.37
2019-06-10T07:45:53.416Z,7.10
2019-06-10T07:48:22.320Z,8.33
2019-06-10T07:50:53.070Z,8.30
2019-06-10T07:53:22.271Z,10.33
2019-06-10T07:55:53.397Z,6.90
2019-06-10T07:58:22.436Z,7.47
2019-06-10T08:00:53.412Z,5.73
2019-06-10T08:03:22.492Z,8.07
2019-06-10T08:05:52.567Z,7.00
2019-06-10T08:08:23.407Z,8.00
2019-06-10T08:10:52.933Z,5.90
2019-06-10T08:13:22.633Z,7.37
2019-06-10T08:15:53.252Z,6.50
2019-06-10T08:18:22.550Z,6.10
2019-06-10T08:20:52.783Z,7.20
2019-06-10T08:23:23.622Z,7.07
2019-06-10T08:25:54.684Z,7.47
2019-06-10T08:28:22.962Z,7.57
2019-06-10T08:30:53.155Z,7.43
2019-06-10T08:33:22.763Z,7.60
2019-06-10T08:35:57.295Z,8.77
2019-06-10T08:38:23.122Z,7.67
2019-06-10T08:40:52.455Z,7.60
2019-06-10T08:43:22.657Z,8.03
2019-06-10T08:45:52.890Z,7.83
2019-06-10T08:48:22.803Z,8.03
2019-06-10T08:50:53.033Z,7.10
2019-06-10T08:53:22.763Z,6.60
2019-06-10T08:55:53.608Z,6.73
2019-06-10T08:58:22.601Z,6.80
2019-06-10T09:00:53.522Z,6.47
2019-06-10T09:03:23.321Z,8.03
2019-06-10T09:05:54.108Z,6.60
2019-06-10T09:08:23.545Z,8.87
2019-06-10T09:10:54.921Z,7.17
2019-06-10T09:13:22.443Z,5.40
2019-06-10T09:16:10.136Z,9.20
2019-06-10T09:18:23.293Z,7.00
2019-06-10T09:20:55.311Z,6.63
2019-06-10T09:23:25.327Z,7.27
2019-06-10T09:25:56.943Z,6.07
2019-06-10T09:28:23.506Z,6.60
2019-06-10T09:30:57.912Z,6.70
2019-06-10T09:33:23.026Z,6.03
2019-06-10T09:35:54.842Z,5.30
2019-06-10T09:38:22.357Z,5.93
2019-06-10T09:41:00.702Z,3.70
2019-06-10T09:43:23.833Z,6.00
2019-06-10T09:45:56.326Z,4.20
2019-06-10T09:48:24.025Z,4.03
2019-06-10T09:50:57.955Z,5.80
2019-06-10T09:53:33.225Z,3.57
2019-06-10T09:55:55.526Z,4.83
2019-06-10T09:58:24.041Z,5.97
2019-06-10T10:00:58.227Z,9.50
2019-06-10T10:03:26.761Z,6.47
2019-06-10T10:06:09.349Z,5.57
2019-06-10T10:08:25.685Z,5.97
2019-06-10T10:10:58.585Z,4.40
2019-06-10T10:13:24.789Z,6.07
2019-06-10T10:15:54.391Z,7.00
2019-06-10T10:18:23.576Z,4.17
2019-06-10T10:20:58.603Z,4.37
2019-06-10T10:23:22.801Z,7.57
2019-06-10T10:25:56.347Z,4.83
2019-06-10T10:28:25.019Z,5.17
2019-06-10T10:30:57.183Z,8.23
2019-06-10T10:33:26.881Z,4.23
2019-06-10T10:35:52.653Z,3.47
2019-06-10T10:38:22.890Z,6.87
2019-06-10T10:40:56.480Z,5.80
2019-06-10T10:43:29.019Z,6.03
2019-06-10T10:45:59.096Z,4.33
2019-06-10T10:48:22.593Z,5.90
2019-06-10T10:50:55.522Z,5.30
2019-06-10T10:53:23.692Z,6.43
2019-06-10T10:55:52.008Z,6.83
2019-06-10T10:58:22.862Z,4.50
2019-06-10T11:00:54.533Z,5.30
2019-06-10T11:03:22.861Z,4.50
2019-06-10T11:05:57.190Z,6.87
2019-06-10T11:08:22.782Z,7.53
2019-06-10T11:10:57.416Z,7.10
2019-06-10T11:13:26.132Z,5.00
2019-06-10T11:15:56.619Z,4.47
2019-06-10T11:18:24.684Z,3.93
2019-06-10T11:20:54.115Z,4.47
2019-06-10T11:23:22.948Z,5.90
2019-06-10T11:25:56.573Z,4.53
2019-06-10T11:28:22.792Z,7.90
2019-06-10T11:30:55.418Z,4.70
2019-06-10T11:33:22.682Z,6.93
2019-06-10T11:35:53.605Z,3.43
2019-06-10T11:38:23.426Z,3.63
2019-06-10T11:40:55.930Z,3.73
2019-06-10T11:43:22.771Z,4.27
2019-06-10T11:45:57.606Z,3.77
2019-06-10T11:48:23.675Z,5.70
2019-06-10T11:50:54.715Z,3.73
2019-06-10T11:53:22.903Z,4.87
2019-06-10T11:55:51.764Z,6.97
2019-06-10T11:58:22.346Z,7.47
2019-06-10T12:00:54.354Z,6.90
2019-06-10T12:03:23.035Z,4.90
2019-06-10T12:05:53.763Z,4.27
2019-06-10T12:08:23.736Z,3.40
2019-06-10T12:10:56.477Z,3.97
2019-06-10T12:13:22.585Z,3.97
2019-06-10T12:16:32.733Z,2.97
2019-06-10T12:18:22.973Z,5.07
2019-06-10T12:20:55.137Z,4.63
2019-06-10T12:23:22.156Z,5.40
2019-06-10T12:25:54.595Z,4.27
2019-06-10T12:28:21.005Z,4.30
2019-06-10T12:30:51.215Z,4.00
2019-06-10T12:33:22.241Z,6.90
2019-06-10T12:35:51.788Z,5.77
2019-06-10T12:38:22.477Z,8.17
2019-06-10T12:40:51.672Z,6.87
2019-06-10T12:43:22.938Z,6.80
2019-06-10T12:45:53.977Z,7.30
2019-06-10T12:48:22.189Z,5.97
2019-06-10T12:50:53.268Z,6.10
2019-06-10T12:53:22.849Z,5.63
2019-06-10T12:55:53.674Z,8.10
2019-06-10T12:58:22.614Z,9.03
2019-06-10T13:00:53.272Z,6.60
2019-06-10T13:03:23.769Z,5.20
2019-06-10T13:05:53.524Z,7.43
2019-06-10T13:08:23.938Z,7.10
2019-06-10T13:10:53.279Z,4.37
2019-06-10T13:13:22.659Z,3.90
2019-06-10T13:15:53.173Z,5.40
2019-06-10T13:18:23.776Z,7.10
2019-06-10T13:20:53.812Z,6.03
2019-06-10T13:23:30.459Z,5.97
2019-06-10T13:25:57.834Z,9.90
2019-06-10T13:28:22.551Z,6.47
2019-06-10T13:30:54.048Z,6.20
2019-06-10T13:33:23.008Z,6.80
2019-06-10T13:35:53.562Z,6.83
2019-06-10T13:38:25.348Z,5.50
2019-06-10T13:40:53.278Z,8.70
2019-06-10T13:43:23.234Z,7.90
2019-06-10T13:45:53.259Z,8.57
2019-06-10T13:48:25.676Z,7.83
2019-06-10T13:50:52.854Z,6.93
2019-06-10T13:53:21.482Z,10.67
2019-06-10T13:55:56.944Z,16.53
2019-06-10T13:58:22.846Z,7.13
2019-06-10T14:00:53.293Z,10.60
2019-06-10T14:03:22.724Z,19.53
2019-06-10T14:05:57.844Z,11.50
2019-06-10T14:08:23.051Z,10.80
2019-06-10T14:10:53.717Z,13.20
2019-06-10T14:13:23.553Z,9.33
2019-06-10T14:15:53.330Z,7.73
2019-06-10T14:18:23.131Z,5.90
2019-06-10T14:20:53.169Z,10.47
2019-06-10T14:23:22.327Z,7.87
2019-06-10T14:25:52.648Z,8.10
2019-06-10T14:28:38.402Z,8.87
2019-06-10T14:30:53.911Z,8.13
2019-06-10T14:33:23.307Z,7.07
2019-06-10T14:35:53.448Z,6.83
2019-06-10T14:38:22.238Z,8.17
2019-06-10T14:40:52.578Z,6.93
2019-06-10T14:43:23.227Z,8.00
2019-06-10T14:45:53.370Z,8.07
2019-06-10T14:48:23.349Z,6.10
2019-06-10T14:50:51.638Z,7.30
2019-06-10T14:53:22.621Z,5.87
2019-06-10T14:55:52.878Z,7.20
2019-06-10T14:58:22.780Z,6.73
2019-06-10T15:00:53.733Z,6.70
2019-06-10T15:03:20.672Z,7.63
2019-06-10T15:05:49.152Z,5.90
2019-06-10T15:08:17.740Z,8.20
2019-06-10T15:10:46.168Z,6.80
2019-06-10T15:13:15.970Z,7.47
2019-06-10T15:15:45.369Z,6.63
2019-06-10T15:18:16.580Z,4.33
2019-06-10T15:20:43.999Z,6.47
2019-06-10T15:23:16.471Z,4.93
2019-06-10T15:25:50.217Z,6.00
2019-06-10T15:28:14.462Z,5.53
2019-06-10T15:30:43.339Z,5.00
2019-06-10T15:33:14.881Z,5.73
2019-06-10T15:35:42.899Z,5.90
2019-06-10T15:38:13.940Z,5.53
2019-06-10T15:40:43.406Z,7.23
2019-06-10T15:43:12.010Z,5.37
2019-06-10T15:45:40.464Z,6.17
2019-06-10T15:48:29.723Z,8.10
2019-06-10T15:50:58.139Z,6.50
2019-06-10T15:53:26.605Z,6.60
2019-06-10T15:56:13.121Z,6.53
2019-06-10T15:58:26.152Z,6.83
2019-06-10T16:00:54.753Z,6.50
2019-06-10T16:03:25.414Z,6.10
2019-06-10T16:05:53.719Z,7.30
2019-06-10T16:08:22.510Z,7.90
2019-06-10T16:10:52.666Z,8.27
2019-06-10T16:13:25.567Z,8.67
2019-06-10T16:15:53.191Z,13.87
2019-06-10T16:18:27.207Z,10.63
2019-06-10T16:20:53.073Z,8.73
2019-06-10T16:23:24.613Z,13.90
2019-06-10T16:25:53.344Z,20.40
2019-06-10T16:28:23.466Z,11.67
2019-06-10T16:30:53.658Z,11.27
2019-06-10T16:33:26.075Z,9.30
2019-06-10T16:35:52.707Z,9.53
2019-06-10T16:38:23.537Z,9.70
2019-06-10T16:40:53.656Z,9.07
2019-06-10T16:43:24.107Z,8.20
2019-06-10T16:45:52.557Z,11.50
2019-06-10T16:48:21.587Z,7.57
2019-06-10T16:50:53.943Z,8.67
2019-06-10T16:53:25.831Z,8.00
2019-06-10T16:55:52.716Z,7.00
2019-06-10T16:58:23.634Z,7.27
2019-06-10T17:00:50.997Z,6.73
2019-06-10T17:03:22.758Z,8.00
2019-06-10T17:05:49.559Z,8.47
2019-06-10T17:08:18.039Z,10.80
2019-06-10T17:10:46.462Z,10.40
2019-06-10T17:13:16.542Z,10.47
2019-06-10T17:15:45.060Z,10.30
2019-06-10T17:18:13.453Z,12.43
2019-06-10T17:20:42.933Z,8.63
2019-06-10T17:23:26.605Z,7.60
2019-06-10T17:25:54.900Z,7.03
2019-06-10T17:28:28.696Z,8.67
2019-06-10T17:30:56.376Z,11.00
2019-06-10T17:33:26.181Z,8.07
2019-06-10T17:35:55.006Z,9.63
2019-06-10T17:38:24.635Z,7.63
2019-06-10T17:40:53.379Z,8.00
2019-06-10T17:43:23.154Z,8.70
2019-06-10T17:45:52.789Z,10.73
2019-06-10T17:48:23.757Z,8.37
2019-06-10T17:50:52.472Z,9.60
2019-06-10T17:53:22.322Z,7.60
2019-06-10T17:55:51.108Z,8.30
2019-06-10T17:58:33.447Z,8.93
2019-06-10T18:00:49.864Z,8.17
2019-06-10T18:03:18.280Z,9.00
2019-06-10T18:05:46.707Z,10.97
2019-06-10T18:08:15.129Z,8.77
2019-06-10T18:10:43.618Z,8.23
2019-06-10T18:13:16.481Z,10.60
2019-06-10T18:15:42.748Z,10.63
2019-06-10T18:18:12.972Z,9.37
2019-06-10T18:20:43.431Z,9.47
2019-06-10T18:23:13.424Z,9.27
2019-06-10T18:25:43.267Z,9.73
2019-06-10T18:28:12.188Z,11.10
2019-06-10T18:30:43.275Z,12.70
2019-06-10T18:33:10.981Z,11.73
2019-06-10T18:35:39.461Z,11.13
2019-06-10T18:38:07.881Z,11.07
2019-06-10T18:40:36.289Z,12.80
2019-06-10T18:43:05.147Z,12.47
2019-06-10T18:45:37.848Z,12.40
2019-06-10T18:48:03.955Z,10.87
2019-06-10T18:50:35.542Z,8.67
2019-06-10T18:53:04.252Z,10.30
2019-06-10T18:55:35.963Z,10.10
2019-06-10T18:58:03.195Z,10.33
2019-06-10T19:00:51.858Z,9.50
2019-06-10T19:03:10.328Z,11.03
2019-06-10T19:05:33.530Z,11.30
2019-06-10T19:08:02.634Z,11.47
2019-06-10T19:10:33.878Z,9.53
2019-06-10T19:13:02.482Z,9.60
2019-06-10T19:15:31.845Z,9.20
2019-06-10T19:18:02.927Z,10.33
2019-06-10T19:20:34.576Z,11.80
2019-06-10T19:23:02.438Z,9.60
2019-06-10T19:25:33.764Z,11.50
2019-06-10T19:28:01.366Z,14.07
2019-06-10T19:30:33.524Z,15.10
2019-06-10T19:33:02.488Z,13.07
2019-06-10T19:35:33.532Z,12.37
2019-06-10T19:38:02.228Z,13.93
2019-06-10T19:40:33.485Z,13.70
2019-06-10T19:43:03.065Z,14.63
2019-06-10T19:45:32.124Z,15.23
2019-06-10T19:48:03.112Z,14.30
2019-06-10T19:50:34.019Z,17.30
2019-06-10T19:53:02.669Z,17.90
2019-06-10T19:55:32.448Z,19.83
2019-06-10T19:58:03.789Z,20.10
2019-06-10T20:00:33.094Z,16.50
2019-06-10T20:03:02.925Z,15.47
2019-06-10T20:05:32.739Z,20.67
2019-06-10T20:08:03.085Z,18.43
2019-06-10T20:10:32.384Z,18.90
2019-06-10T20:13:00.995Z,19.93
2019-06-10T20:15:29.597Z,21.10
2019-06-10T20:17:58.155Z,22.37
2019-06-10T20:20:26.576Z,18.50
2019-06-10T20:22:57.399Z,21.17
2019-06-10T20:25:25.138Z,21.60
2019-06-10T20:27:53.558Z,21.40
2019-06-10T20:30:28.420Z,25.00
2019-06-10T20:32:55.952Z,18.87
2019-06-10T20:35:23.167Z,19.47
2019-06-10T20:37:53.946Z,22.70
2019-06-10T20:40:22.821Z,21.80
2019-06-10T20:42:51.363Z,26.07
2019-06-10T20:45:19.912Z,21.30
2019-06-10T20:47:48.419Z,26.43
2019-06-10T20:50:19.264Z,25.27
2019-06-10T20:52:49.000Z,23.83
2019-06-10T20:55:17.670Z,25.80
2019-06-10T20:58:07.273Z,42.80
2019-06-10T21:00:40.535Z,36.83
2019-06-10T21:03:07.656Z,32.50
2019-06-10T21:05:36.302Z,35.57
2019-06-10T21:08:06.766Z,35.63
2019-06-10T21:10:39.811Z,37.93
2019-06-10T21:13:08.674Z,30.53
2019-06-10T21:15:37.332Z,36.00
2019-06-10T21:18:06.318Z,34.60
2019-06-10T21:20:34.897Z,32.10
2019-06-10T21:23:03.616Z,33.30
2019-06-10T21:25:32.624Z,31.00
2019-06-10T21:28:03.044Z,33.77
2019-06-10T21:30:55.397Z,26.20
2019-06-10T21:33:23.321Z,29.93
2019-06-10T21:35:54.652Z,25.47
2019-06-10T21:38:23.140Z,26.60
2019-06-10T21:40:53.888Z,23.70
2019-06-10T21:43:22.345Z,32.53
2019-06-10T21:45:57.080Z,22.37
2019-06-10T21:48:23.004Z,21.77
2019-06-10T21:50:54.605Z,21.27
2019-06-10T21:53:22.304Z,15.30
2019-06-10T21:55:53.483Z,19.83
2019-06-10T21:58:22.503Z,16.20
2019-06-10T22:01:03.290Z,17.67
2019-06-10T22:03:23.450Z,18.40
2019-06-10T22:05:52.046Z,18.90
2019-06-10T22:08:20.513Z,18.30
2019-06-10T22:10:50.021Z,16.90
2019-06-10T22:13:18.658Z,15.77
2019-06-10T22:15:48.377Z,18.17
2019-06-10T22:18:16.935Z,18.70
2019-06-10T22:20:46.637Z,18.70
2019-06-10T22:23:15.256Z,17.87
2019-06-10T22:25:44.808Z,17.77
2019-06-10T22:28:13.328Z,19.30
2019-06-10T22:30:43.366Z,19.73
2019-06-10T22:33:12.346Z,18.70
2019-06-10T22:35:42.562Z,20.57
2019-06-10T22:38:13.105Z,23.53
2019-06-10T22:40:42.700Z,20.57
2019-06-10T22:43:12.959Z,22.90
2019-06-10T22:45:42.408Z,25.47
2019-06-10T22:48:12.055Z,21.57
2019-06-10T22:50:43.641Z,23.47
2019-06-10T22:53:12.616Z,21.57
2019-06-10T22:55:43.270Z,22.80
2019-06-10T22:58:14.307Z,21.27
2019-06-10T23:00:43.722Z,21.07
2019-06-10T23:03:13.099Z,24.93
2019-06-10T23:05:43.283Z,19.97
2019-06-10T23:08:12.767Z,21.60
2019-06-10T23:10:42.828Z,21.57
2019-06-10T23:13:13.299Z,19.90
2019-06-10T23:15:42.950Z,17.73
2019-06-10T23:18:12.800Z,19.00
2019-06-10T23:20:42.684Z,16.67
2019-06-10T23:23:12.765Z,18.03
2019-06-10T23:25:42.920Z,15.07
2019-06-10T23:28:12.993Z,17.77
2019-06-10T23:30:42.793Z,14.30
2019-06-10T23:33:12.510Z,13.40
2019-06-10T23:35:43.053Z,19.23
2019-06-10T23:38:13.316Z,20.60
2019-06-10T23:40:43.009Z,15.40
2019-06-10T23:43:13.202Z,13.00
2019-06-10T23:45:42.330Z,13.90
2019-06-10T23:48:13.193Z,15.90
2019-06-10T23:50:43.501Z,13.40
2019-06-10T23:53:13.149Z,14.27
2019-06-10T23:56:04.714Z,11.53
2019-06-10T23:58:32.871Z,13.57
